sensor_id;sensor_type;location;lat;lon;timestamp;P1;P2;P0
49914;PMS5003;35806;47.958;13.158;2022-09-09T00:00:46;1;1;
49914;PMS5003;35806;47.958;13.158;2022-09-09T00:03:21;0;0;
49914;PMS5003;35806;47.958;13.158;2022-09-09T00:05:54;0;0;
49914;PMS5003;35806;47.958;13.158;2022-09-09T00:08:33;1;0;
49914;PMS5003;35806;47.958;13.158;2022-09-09T00:11:10;1;1;
49914;PMS5003;35806;47.958;13.158;2022-09-09T00:13:46;1;0;
49914;PMS5003;35806;47.958;13.158;2022-09-09T00:16:17;1;1;
49914;PMS5003;35806;47.958;13.158;2022-09-09T00:18:49;1;1;
49914;PMS5003;35806;47.958;13.158;2022-09-09T00:21:25;1;1;
49914;PMS5003;35806;47.958;13.158;2022-09-09T00:24:08;2;2;
49914;PMS5003;35806;47.958;13.158;2022-09-09T00:26:38;0;0;
49914;PMS5003;35806;47.958;13.158;2022-09-09T00:29:12;1;1;
49914;PMS5003;35806;47.958;13.158;2022-09-09T00:31:55;1;1;
49914;PMS5003;35806;47.958;13.158;2022-09-09T00:34:28;1;1;
49914;PMS5003;35806;47.958;13.158;2022-09-09T00:36:57;1;1;
49914;PMS5003;35806;47.958;13.158;2022-09-09T00:39:27;1;1;
49914;PMS5003;35806;47.958;13.158;2022-09-09T00:42:05;1;1;
49914;PMS5003;35806;47.958;13.158;2022-09-09T00:44:44;0;0;
49914;PMS5003;35806;47.958;13.158;2022-09-09T00:47:25;1;1;
49914;PMS5003;35806;47.958;13.158;2022-09-09T00:50:10;1;1;
49914;PMS5003;35806;47.958;13.158;2022-09-09T00:52:50;0;0;
49914;PMS5003;35806;47.958;13.158;2022-09-09T00:55:27;1;1;
49914;PMS5003;35806;47.958;13.158;2022-09-09T00:58:06;1;1;
49914;PMS5003;35806;47.958;13.158;2022-09-09T01:15:58;0;0;
49914;PMS5003;35806;47.958;13.158;2022-09-09T01:18:27;1;1;
49914;PMS5003;35806;47.958;13.158;2022-09-09T01:21:01;1;1;
49914;PMS5003;35806;47.958;13.158;2022-09-09T01:23:52;1;1;
49914;PMS5003;35806;47.958;13.158;2022-09-09T01:26:36;1;1;
49914;PMS5003;35806;47.958;13.158;2022-09-09T01:29:12;0;0;
49914;PMS5003;35806;47.958;13.158;2022-09-09T01:31:51;1;1;
49914;PMS5003;35806;47.958;13.158;2022-09-09T01:34:19;0;0;
49914;PMS5003;35806;47.958;13.158;2022-09-09T01:36:49;1;1;
49914;PMS5003;35806;47.958;13.158;2022-09-09T01:39:24;2;2;
49914;PMS5003;35806;47.958;13.158;2022-09-09T01:41:52;1;1;
49914;PMS5003;35806;47.958;13.158;2022-09-09T01:44:21;0;0;
49914;PMS5003;35806;47.958;13.158;2022-09-09T01:46:50;0;0;
49914;PMS5003;35806;47.958;13.158;2022-09-09T01:49:18;1;1;
49914;PMS5003;35806;47.958;13.158;2022-09-09T01:51:46;1;1;
49914;PMS5003;35806;47.958;13.158;2022-09-09T01:54:17;1;1;
49914;PMS5003;35806;47.958;13.158;2022-09-09T01:56:47;1;1;
49914;PMS5003;35806;47.958;13.158;2022-09-09T01:59:26;1;1;
49914;PMS5003;35806;47.958;13.158;2022-09-09T02:02:06;3;1;
49914;PMS5003;35806;47.958;13.158;2022-09-09T02:04:39;0;0;
49914;PMS5003;35806;47.958;13.158;2022-09-09T02:07:13;2;2;
49914;PMS5003;35806;47.958;13.158;2022-09-09T02:09:52;1;1;
49914;PMS5003;35806;47.958;13.158;2022-09-09T02:12:27;1;1;
49914;PMS5003;35806;47.958;13.158;2022-09-09T02:14:58;1;1;
49914;PMS5003;35806;47.958;13.158;2022-09-09T02:17:31;1;1;
49914;PMS5003;35806;47.958;13.158;2022-09-09T02:20:04;2;2;
49914;PMS5003;35806;47.958;13.158;2022-09-09T02:22:34;2;2;
49914;PMS5003;35806;47.958;13.158;2022-09-09T02:25:05;0;0;
49914;PMS5003;35806;47.958;13.158;2022-09-09T02:27:36;1;1;
49914;PMS5003;35806;47.958;13.158;2022-09-09T02:30:04;1;1;
49914;PMS5003;35806;47.958;13.158;2022-09-09T02:32:33;1;1;
49914;PMS5003;35806;47.958;13.158;2022-09-09T02:35:03;1;1;
49914;PMS5003;35806;47.958;13.158;2022-09-09T02:37:35;1;1;
49914;PMS5003;35806;47.958;13.158;2022-09-09T02:40:04;0;0;
49914;PMS5003;35806;47.958;13.158;2022-09-09T02:42:38;1;1;
49914;PMS5003;35806;47.958;13.158;2022-09-09T02:45:06;1;1;
49914;PMS5003;35806;47.958;13.158;2022-09-09T02:47:35;0;0;
49914;PMS5003;35806;47.958;13.158;2022-09-09T02:50:08;0;0;
49914;PMS5003;35806;47.958;13.158;2022-09-09T02:52:43;1;1;
49914;PMS5003;35806;47.958;13.158;2022-09-09T02:55:18;1;1;
49914;PMS5003;35806;47.958;13.158;2022-09-09T02:57:50;0;0;
49914;PMS5003;35806;47.958;13.158;2022-09-09T03:00:24;1;1;
49914;PMS5003;35806;47.958;13.158;2022-09-09T03:02:52;0;0;
49914;PMS5003;35806;47.958;13.158;2022-09-09T03:05:20;2;2;
49914;PMS5003;35806;47.958;13.158;2022-09-09T03:07:48;1;1;
49914;PMS5003;35806;47.958;13.158;2022-09-09T03:10:16;1;1;
49914;PMS5003;35806;47.958;13.158;2022-09-09T03:12:43;1;1;
49914;PMS5003;35806;47.958;13.158;2022-09-09T03:15:10;1;1;
49914;PMS5003;35806;47.958;13.158;2022-09-09T03:17:38;2;2;
49914;PMS5003;35806;47.958;13.158;2022-09-09T03:20:06;2;2;
49914;PMS5003;35806;47.958;13.158;2022-09-09T03:22:33;1;1;
49914;PMS5003;35806;47.958;13.158;2022-09-09T03:25:01;2;2;
49914;PMS5003;35806;47.958;13.158;2022-09-09T03:27:28;1;1;
49914;PMS5003;35806;47.958;13.158;2022-09-09T03:29:56;1;1;
49914;PMS5003;35806;47.958;13.158;2022-09-09T03:32:23;1;1;
49914;PMS5003;35806;47.958;13.158;2022-09-09T03:34:51;1;1;
49914;PMS5003;35806;47.958;13.158;2022-09-09T03:37:18;1;1;
49914;PMS5003;35806;47.958;13.158;2022-09-09T03:39:46;1;1;
49914;PMS5003;35806;47.958;13.158;2022-09-09T03:42:14;1;0;
49914;PMS5003;35806;47.958;13.158;2022-09-09T03:44:41;1;1;
49914;PMS5003;35806;47.958;13.158;2022-09-09T03:47:08;0;0;
49914;PMS5003;35806;47.958;13.158;2022-09-09T03:49:35;1;1;
49914;PMS5003;35806;47.958;13.158;2022-09-09T03:52:02;1;1;
49914;PMS5003;35806;47.958;13.158;2022-09-09T03:54:30;2;2;
49914;PMS5003;35806;47.958;13.158;2022-09-09T03:56:58;3;2;
49914;PMS5003;35806;47.958;13.158;2022-09-09T03:59:25;2;2;
49914;PMS5003;35806;47.958;13.158;2022-09-09T04:01:53;2;2;
49914;PMS5003;35806;47.958;13.158;2022-09-09T04:04:20;1;1;
49914;PMS5003;35806;47.958;13.158;2022-09-09T04:06:48;1;1;
49914;PMS5003;35806;47.958;13.158;2022-09-09T04:09:15;1;1;
49914;PMS5003;35806;47.958;13.158;2022-09-09T04:11:43;0;0;
49914;PMS5003;35806;47.958;13.158;2022-09-09T04:14:10;1;1;
49914;PMS5003;35806;47.958;13.158;2022-09-09T04:16:38;1;1;
49914;PMS5003;35806;47.958;13.158;2022-09-09T04:19:05;1;1;
49914;PMS5003;35806;47.958;13.158;2022-09-09T04:21:33;1;1;
49914;PMS5003;35806;47.958;13.158;2022-09-09T04:24:01;1;1;
49914;PMS5003;35806;47.958;13.158;2022-09-09T04:26:28;1;1;
49914;PMS5003;35806;47.958;13.158;2022-09-09T04:28:56;2;2;
49914;PMS5003;35806;47.958;13.158;2022-09-09T04:31:23;1;1;
49914;PMS5003;35806;47.958;13.158;2022-09-09T04:33:51;0;0;
49914;PMS5003;35806;47.958;13.158;2022-09-09T04:36:18;1;1;
49914;PMS5003;35806;47.958;13.158;2022-09-09T04:38:46;2;2;
49914;PMS5003;35806;47.958;13.158;2022-09-09T04:41:13;2;2;
49914;PMS5003;35806;47.958;13.158;2022-09-09T04:43:41;0;0;
49914;PMS5003;35806;47.958;13.158;2022-09-09T04:46:08;1;1;
49914;PMS5003;35806;47.958;13.158;2022-09-09T04:48:36;2;2;
49914;PMS5003;35806;47.958;13.158;2022-09-09T04:51:04;0;0;
49914;PMS5003;35806;47.958;13.158;2022-09-09T04:53:33;1;1;
49914;PMS5003;35806;47.958;13.158;2022-09-09T04:56:01;0;0;
49914;PMS5003;35806;47.958;13.158;2022-09-09T04:58:29;1;0;
49914;PMS5003;35806;47.958;13.158;2022-09-09T05:01:02;1;1;
49914;PMS5003;35806;47.958;13.158;2022-09-09T05:03:30;2;2;
49914;PMS5003;35806;47.958;13.158;2022-09-09T05:06:02;2;2;
49914;PMS5003;35806;47.958;13.158;2022-09-09T05:08:31;1;1;
49914;PMS5003;35806;47.958;13.158;2022-09-09T05:10:58;2;2;
49914;PMS5003;35806;47.958;13.158;2022-09-09T05:13:25;1;1;
49914;PMS5003;35806;47.958;13.158;2022-09-09T05:15:57;1;1;
49914;PMS5003;35806;47.958;13.158;2022-09-09T05:18:24;2;2;
49914;PMS5003;35806;47.958;13.158;2022-09-09T05:20:52;1;1;
49914;PMS5003;35806;47.958;13.158;2022-09-09T05:23:24;2;0;
49914;PMS5003;35806;47.958;13.158;2022-09-09T05:25:54;0;0;
49914;PMS5003;35806;47.958;13.158;2022-09-09T05:28:22;1;1;
49914;PMS5003;35806;47.958;13.158;2022-09-09T05:30:55;1;1;
49914;PMS5003;35806;47.958;13.158;2022-09-09T05:33:23;1;1;
49914;PMS5003;35806;47.958;13.158;2022-09-09T05:35:55;1;1;
49914;PMS5003;35806;47.958;13.158;2022-09-09T05:38:43;0;0;
49914;PMS5003;35806;47.958;13.158;2022-09-09T05:41:11;3;3;
49914;PMS5003;35806;47.958;13.158;2022-09-09T05:43:39;1;1;
49914;PMS5003;35806;47.958;13.158;2022-09-09T05:46:09;3;2;
49914;PMS5003;35806;47.958;13.158;2022-09-09T05:48:58;2;2;
49914;PMS5003;35806;47.958;13.158;2022-09-09T05:51:26;1;1;
49914;PMS5003;35806;47.958;13.158;2022-09-09T05:53:54;1;1;
49914;PMS5003;35806;47.958;13.158;2022-09-09T05:56:23;1;1;
49914;PMS5003;35806;47.958;13.158;2022-09-09T05:58:56;1;1;
49914;PMS5003;35806;47.958;13.158;2022-09-09T06:01:24;1;1;
49914;PMS5003;35806;47.958;13.158;2022-09-09T06:03:52;1;1;
49914;PMS5003;35806;47.958;13.158;2022-09-09T06:06:20;4;2;
49914;PMS5003;35806;47.958;13.158;2022-09-09T06:08:50;0;0;
49914;PMS5003;35806;47.958;13.158;2022-09-09T06:11:20;1;1;
49914;PMS5003;35806;47.958;13.158;2022-09-09T06:13:48;1;1;
49914;PMS5003;35806;47.958;13.158;2022-09-09T06:16:17;1;1;
49914;PMS5003;35806;47.958;13.158;2022-09-09T06:18:46;1;1;
49914;PMS5003;35806;47.958;13.158;2022-09-09T06:21:15;1;1;
49914;PMS5003;35806;47.958;13.158;2022-09-09T06:23:43;0;0;
49914;PMS5003;35806;47.958;13.158;2022-09-09T06:26:11;3;3;
49914;PMS5003;35806;47.958;13.158;2022-09-09T06:28:39;1;1;
49914;PMS5003;35806;47.958;13.158;2022-09-09T06:31:07;1;1;
49914;PMS5003;35806;47.958;13.158;2022-09-09T06:33:37;3;3;
49914;PMS5003;35806;47.958;13.158;2022-09-09T06:36:06;0;0;
49914;PMS5003;35806;47.958;13.158;2022-09-09T06:38:36;2;2;
49914;PMS5003;35806;47.958;13.158;2022-09-09T06:41:04;5;5;
49914;PMS5003;35806;47.958;13.158;2022-09-09T06:43:32;7;7;
49914;PMS5003;35806;47.958;13.158;2022-09-09T06:46:00;4;4;
49914;PMS5003;35806;47.958;13.158;2022-09-09T06:48:30;2;2;
49914;PMS5003;35806;47.958;13.158;2022-09-09T06:51:01;1;1;
49914;PMS5003;35806;47.958;13.158;2022-09-09T06:53:30;2;2;
49914;PMS5003;35806;47.958;13.158;2022-09-09T06:55:58;5;3;
49914;PMS5003;35806;47.958;13.158;2022-09-09T06:58:26;1;1;
49914;PMS5003;35806;47.958;13.158;2022-09-09T07:01:02;4;2;
49914;PMS5003;35806;47.958;13.158;2022-09-09T07:03:30;1;1;
49914;PMS5003;35806;47.958;13.158;2022-09-09T07:05:57;2;2;
49914;PMS5003;35806;47.958;13.158;2022-09-09T07:08:25;1;1;
49914;PMS5003;35806;47.958;13.158;2022-09-09T07:10:52;3;3;
49914;PMS5003;35806;47.958;13.158;2022-09-09T07:13:23;1;1;
49914;PMS5003;35806;47.958;13.158;2022-09-09T07:15:51;1;1;
49914;PMS5003;35806;47.958;13.158;2022-09-09T07:18:18;0;0;
49914;PMS5003;35806;47.958;13.158;2022-09-09T07:20:52;1;1;
49914;PMS5003;35806;47.958;13.158;2022-09-09T07:23:20;2;2;
49914;PMS5003;35806;47.958;13.158;2022-09-09T07:25:49;1;1;
49914;PMS5003;35806;47.958;13.158;2022-09-09T07:28:16;2;2;
49914;PMS5003;35806;47.958;13.158;2022-09-09T07:30:52;3;1;
49914;PMS5003;35806;47.958;13.158;2022-09-09T07:33:26;2;1;
49914;PMS5003;35806;47.958;13.158;2022-09-09T07:35:53;1;1;
49914;PMS5003;35806;47.958;13.158;2022-09-09T07:38:28;2;2;
49914;PMS5003;35806;47.958;13.158;2022-09-09T07:41:02;2;2;
49914;PMS5003;35806;47.958;13.158;2022-09-09T07:43:30;1;1;
49914;PMS5003;35806;47.958;13.158;2022-09-09T07:45:58;1;1;
49914;PMS5003;35806;47.958;13.158;2022-09-09T07:48:26;0;0;
49914;PMS5003;35806;47.958;13.158;2022-09-09T07:51:02;1;1;
49914;PMS5003;35806;47.958;13.158;2022-09-09T07:53:33;1;1;
49914;PMS5003;35806;47.958;13.158;2022-09-09T07:56:06;1;1;
49914;PMS5003;35806;47.958;13.158;2022-09-09T07:58:36;0;0;
49914;PMS5003;35806;47.958;13.158;2022-09-09T08:01:08;1;1;
49914;PMS5003;35806;47.958;13.158;2022-09-09T08:03:37;2;2;
49914;PMS5003;35806;47.958;13.158;2022-09-09T08:06:05;1;1;
49914;PMS5003;35806;47.958;13.158;2022-09-09T08:08:34;2;2;
49914;PMS5003;35806;47.958;13.158;2022-09-09T08:11:04;3;1;
49914;PMS5003;35806;47.958;13.158;2022-09-09T08:13:33;2;2;
49914;PMS5003;35806;47.958;13.158;2022-09-09T08:16:05;0;0;
49914;PMS5003;35806;47.958;13.158;2022-09-09T08:18:39;2;1;
49914;PMS5003;35806;47.958;13.158;2022-09-09T08:21:07;3;2;
49914;PMS5003;35806;47.958;13.158;2022-09-09T08:23:36;2;2;
49914;PMS5003;35806;47.958;13.158;2022-09-09T08:26:04;2;1;
49914;PMS5003;35806;47.958;13.158;2022-09-09T08:28:32;1;1;
49914;PMS5003;35806;47.958;13.158;2022-09-09T08:31:08;2;2;
49914;PMS5003;35806;47.958;13.158;2022-09-09T08:33:38;1;1;
49914;PMS5003;35806;47.958;13.158;2022-09-09T08:36:05;1;1;
49914;PMS5003;35806;47.958;13.158;2022-09-09T08:38:34;2;2;
49914;PMS5003;35806;47.958;13.158;2022-09-09T08:41:06;2;2;
49914;PMS5003;35806;47.958;13.158;2022-09-09T08:43:45;2;2;
49914;PMS5003;35806;47.958;13.158;2022-09-09T08:46:18;2;2;
49914;PMS5003;35806;47.958;13.158;2022-09-09T08:48:53;1;1;
49914;PMS5003;35806;47.958;13.158;2022-09-09T08:51:27;0;0;
49914;PMS5003;35806;47.958;13.158;2022-09-09T08:53:58;1;1;
49914;PMS5003;35806;47.958;13.158;2022-09-09T08:56:32;1;1;
49914;PMS5003;35806;47.958;13.158;2022-09-09T08:59:04;2;1;
49914;PMS5003;35806;47.958;13.158;2022-09-09T09:01:40;1;1;
49914;PMS5003;35806;47.958;13.158;2022-09-09T09:04:25;2;2;
49914;PMS5003;35806;47.958;13.158;2022-09-09T09:07:07;0;0;
49914;PMS5003;35806;47.958;13.158;2022-09-09T09:09:43;2;2;
49914;PMS5003;35806;47.958;13.158;2022-09-09T09:12:19;2;2;
49914;PMS5003;35806;47.958;13.158;2022-09-09T09:14:49;2;2;
49914;PMS5003;35806;47.958;13.158;2022-09-09T09:17:17;1;1;
49914;PMS5003;35806;47.958;13.158;2022-09-09T09:19:46;1;1;
49914;PMS5003;35806;47.958;13.158;2022-09-09T09:22:17;1;1;
49914;PMS5003;35806;47.958;13.158;2022-09-09T09:24:50;0;0;
49914;PMS5003;35806;47.958;13.158;2022-09-09T09:27:27;2;2;
49914;PMS5003;35806;47.958;13.158;2022-09-09T09:30:12;1;1;
49914;PMS5003;35806;47.958;13.158;2022-09-09T09:32:44;1;1;
49914;PMS5003;35806;47.958;13.158;2022-09-09T09:35:18;1;1;
49914;PMS5003;35806;47.958;13.158;2022-09-09T09:37:46;1;1;
49914;PMS5003;35806;47.958;13.158;2022-09-09T09:40:20;2;2;
49914;PMS5003;35806;47.958;13.158;2022-09-09T09:42:49;1;1;
49914;PMS5003;35806;47.958;13.158;2022-09-09T09:45:23;1;1;
49914;PMS5003;35806;47.958;13.158;2022-09-09T09:47:59;3;2;
49914;PMS5003;35806;47.958;13.158;2022-09-09T09:50:27;2;2;
49914;PMS5003;35806;47.958;13.158;2022-09-09T09:52:56;2;2;
49914;PMS5003;35806;47.958;13.158;2022-09-09T09:55:24;0;0;
49914;PMS5003;35806;47.958;13.158;2022-09-09T09:57:52;2;2;
49914;PMS5003;35806;47.958;13.158;2022-09-09T10:00:20;4;4;
49914;PMS5003;35806;47.958;13.158;2022-09-09T10:02:49;5;2;
49914;PMS5003;35806;47.958;13.158;2022-09-09T10:05:17;2;2;
49914;PMS5003;35806;47.958;13.158;2022-09-09T10:07:46;1;1;
49914;PMS5003;35806;47.958;13.158;2022-09-09T10:10:26;2;2;
49914;PMS5003;35806;47.958;13.158;2022-09-09T10:13:04;3;3;
49914;PMS5003;35806;47.958;13.158;2022-09-09T10:15:42;2;2;
49914;PMS5003;35806;47.958;13.158;2022-09-09T10:18:22;2;2;
49914;PMS5003;35806;47.958;13.158;2022-09-09T10:21:03;1;1;
49914;PMS5003;35806;47.958;13.158;2022-09-09T10:23:45;2;2;
49914;PMS5003;35806;47.958;13.158;2022-09-09T10:26:30;2;2;
49914;PMS5003;35806;47.958;13.158;2022-09-09T10:29:16;2;1;
49914;PMS5003;35806;47.958;13.158;2022-09-09T10:31:59;2;2;
49914;PMS5003;35806;47.958;13.158;2022-09-09T10:34:42;2;2;
49914;PMS5003;35806;47.958;13.158;2022-09-09T10:37:25;4;2;
49914;PMS5003;35806;47.958;13.158;2022-09-09T10:40:14;1;1;
49914;PMS5003;35806;47.958;13.158;2022-09-09T10:42:49;2;2;
49914;PMS5003;35806;47.958;13.158;2022-09-09T10:45:17;3;3;
49914;PMS5003;35806;47.958;13.158;2022-09-09T10:47:57;2;2;
49914;PMS5003;35806;47.958;13.158;2022-09-09T10:50:43;4;3;
49914;PMS5003;35806;47.958;13.158;2022-09-09T10:53:19;2;2;
49914;PMS5003;35806;47.958;13.158;2022-09-09T10:55:57;2;2;
49914;PMS5003;35806;47.958;13.158;2022-09-09T10:58:30;2;2;
49914;PMS5003;35806;47.958;13.158;2022-09-09T11:01:03;1;1;
49914;PMS5003;35806;47.958;13.158;2022-09-09T11:03:37;1;1;
49914;PMS5003;35806;47.958;13.158;2022-09-09T11:06:09;0;0;
49914;PMS5003;35806;47.958;13.158;2022-09-09T11:08:41;2;2;
49914;PMS5003;35806;47.958;13.158;2022-09-09T11:11:10;3;3;
49914;PMS5003;35806;47.958;13.158;2022-09-09T11:13:42;2;2;
49914;PMS5003;35806;47.958;13.158;2022-09-09T11:16:20;3;3;
49914;PMS5003;35806;47.958;13.158;2022-09-09T11:18:53;3;3;
49914;PMS5003;35806;47.958;13.158;2022-09-09T11:21:26;3;3;
49914;PMS5003;35806;47.958;13.158;2022-09-09T11:23:59;4;4;
49914;PMS5003;35806;47.958;13.158;2022-09-09T11:26:31;5;5;
49914;PMS5003;35806;47.958;13.158;2022-09-09T11:29:07;4;4;
49914;PMS5003;35806;47.958;13.158;2022-09-09T11:31:53;6;4;
49914;PMS5003;35806;47.958;13.158;2022-09-09T11:34:37;5;5;
49914;PMS5003;35806;47.958;13.158;2022-09-09T11:37:23;5;4;
49914;PMS5003;35806;47.958;13.158;2022-09-09T11:40:09;4;4;
49914;PMS5003;35806;47.958;13.158;2022-09-09T11:42:43;3;3;
49914;PMS5003;35806;47.958;13.158;2022-09-09T11:45:18;5;4;
49914;PMS5003;35806;47.958;13.158;2022-09-09T11:47:52;4;4;
49914;PMS5003;35806;47.958;13.158;2022-09-09T11:50:27;4;4;
49914;PMS5003;35806;47.958;13.158;2022-09-09T11:53:30;5;4;
49914;PMS5003;35806;47.958;13.158;2022-09-09T11:56:00;2;2;
49914;PMS5003;35806;47.958;13.158;2022-09-09T11:58:33;4;4;
49914;PMS5003;35806;47.958;13.158;2022-09-09T12:01:12;5;5;
49914;PMS5003;35806;47.958;13.158;2022-09-09T12:03:54;4;4;
49914;PMS5003;35806;47.958;13.158;2022-09-09T12:06:32;7;5;
49914;PMS5003;35806;47.958;13.158;2022-09-09T12:09:08;7;5;
49914;PMS5003;35806;47.958;13.158;2022-09-09T12:11:46;4;4;
49914;PMS5003;35806;47.958;13.158;2022-09-09T12:14:21;6;6;
49914;PMS5003;35806;47.958;13.158;2022-09-09T12:17:08;5;5;
49914;PMS5003;35806;47.958;13.158;2022-09-09T12:19:43;4;4;
49914;PMS5003;35806;47.958;13.158;2022-09-09T12:22:13;5;5;
49914;PMS5003;35806;47.958;13.158;2022-09-09T12:24:49;5;5;
49914;PMS5003;35806;47.958;13.158;2022-09-09T12:27:24;5;5;
49914;PMS5003;35806;47.958;13.158;2022-09-09T12:29:58;3;3;
49914;PMS5003;35806;47.958;13.158;2022-09-09T12:32:35;3;3;
49914;PMS5003;35806;47.958;13.158;2022-09-09T12:35:03;3;3;
49914;PMS5003;35806;47.958;13.158;2022-09-09T12:37:39;3;3;
49914;PMS5003;35806;47.958;13.158;2022-09-09T12:40:19;4;4;
49914;PMS5003;35806;47.958;13.158;2022-09-09T12:42:48;5;5;
49914;PMS5003;35806;47.958;13.158;2022-09-09T12:45:16;3;3;
49914;PMS5003;35806;47.958;13.158;2022-09-09T12:47:45;4;4;
49914;PMS5003;35806;47.958;13.158;2022-09-09T12:50:21;4;4;
49914;PMS5003;35806;47.958;13.158;2022-09-09T12:52:50;4;3;
49914;PMS5003;35806;47.958;13.158;2022-09-09T12:55:23;4;4;
49914;PMS5003;35806;47.958;13.158;2022-09-09T12:57:53;5;5;
49914;PMS5003;35806;47.958;13.158;2022-09-09T13:00:22;3;3;
49914;PMS5003;35806;47.958;13.158;2022-09-09T13:02:51;4;4;
49914;PMS5003;35806;47.958;13.158;2022-09-09T13:05:21;3;3;
49914;PMS5003;35806;47.958;13.158;2022-09-09T13:07:50;4;4;
49914;PMS5003;35806;47.958;13.158;2022-09-09T13:10:20;5;5;
49914;PMS5003;35806;47.958;13.158;2022-09-09T13:12:52;6;4;
49914;PMS5003;35806;47.958;13.158;2022-09-09T13:15:21;7;5;
49914;PMS5003;35806;47.958;13.158;2022-09-09T13:17:52;7;6;
49914;PMS5003;35806;47.958;13.158;2022-09-09T13:20:21;5;5;
49914;PMS5003;35806;47.958;13.158;2022-09-09T13:22:51;9;7;
49914;PMS5003;35806;47.958;13.158;2022-09-09T13:25:22;8;7;
49914;PMS5003;35806;47.958;13.158;2022-09-09T13:27:52;7;7;
49914;PMS5003;35806;47.958;13.158;2022-09-09T13:30:24;7;7;
49914;PMS5003;35806;47.958;13.158;2022-09-09T13:33:59;4;4;
49914;PMS5003;35806;47.958;13.158;2022-09-09T13:36:37;4;4;
49914;PMS5003;35806;47.958;13.158;2022-09-09T13:39:13;7;4;
49914;PMS5003;35806;47.958;13.158;2022-09-09T13:41:43;6;6;
49914;PMS5003;35806;47.958;13.158;2022-09-09T13:44:14;6;6;
49914;PMS5003;35806;47.958;13.158;2022-09-09T13:46:46;5;5;
49914;PMS5003;35806;47.958;13.158;2022-09-09T13:49:19;6;6;
49914;PMS5003;35806;47.958;13.158;2022-09-09T13:52:03;6;6;
49914;PMS5003;35806;47.958;13.158;2022-09-09T13:54:31;8;8;
49914;PMS5003;35806;47.958;13.158;2022-09-09T13:56:59;11;11;
49914;PMS5003;35806;47.958;13.158;2022-09-09T13:59:26;6;6;
49914;PMS5003;35806;47.958;13.158;2022-09-09T14:01:54;10;9;
49914;PMS5003;35806;47.958;13.158;2022-09-09T14:04:21;8;8;
49914;PMS5003;35806;47.958;13.158;2022-09-09T14:06:49;9;9;
49914;PMS5003;35806;47.958;13.158;2022-09-09T14:09:17;10;10;
49914;PMS5003;35806;47.958;13.158;2022-09-09T14:11:45;12;12;
49914;PMS5003;35806;47.958;13.158;2022-09-09T14:14:12;12;11;
49914;PMS5003;35806;47.958;13.158;2022-09-09T14:16:40;10;10;
49914;PMS5003;35806;47.958;13.158;2022-09-09T14:19:07;11;11;
49914;PMS5003;35806;47.958;13.158;2022-09-09T14:21:35;9;8;
49914;PMS5003;35806;47.958;13.158;2022-09-09T14:24:02;9;9;
49914;PMS5003;35806;47.958;13.158;2022-09-09T14:26:35;13;12;
49914;PMS5003;35806;47.958;13.158;2022-09-09T14:29:02;11;9;
49914;PMS5003;35806;47.958;13.158;2022-09-09T14:31:29;13;13;
49914;PMS5003;35806;47.958;13.158;2022-09-09T14:33:57;12;11;
49914;PMS5003;35806;47.958;13.158;2022-09-09T14:36:24;12;12;
49914;PMS5003;35806;47.958;13.158;2022-09-09T14:38:52;13;12;
49914;PMS5003;35806;47.958;13.158;2022-09-09T14:41:19;19;17;
49914;PMS5003;35806;47.958;13.158;2022-09-09T14:43:46;9;9;
49914;PMS5003;35806;47.958;13.158;2022-09-09T14:46:15;11;9;
49914;PMS5003;35806;47.958;13.158;2022-09-09T14:48:43;11;11;
49914;PMS5003;35806;47.958;13.158;2022-09-09T14:51:12;13;13;
49914;PMS5003;35806;47.958;13.158;2022-09-09T14:53:40;13;12;
49914;PMS5003;35806;47.958;13.158;2022-09-09T14:56:08;16;16;
49914;PMS5003;35806;47.958;13.158;2022-09-09T14:58:37;14;14;
49914;PMS5003;35806;47.958;13.158;2022-09-09T15:01:05;10;10;
49914;PMS5003;35806;47.958;13.158;2022-09-09T15:03:34;10;10;
49914;PMS5003;35806;47.958;13.158;2022-09-09T15:06:06;11;10;
49914;PMS5003;35806;47.958;13.158;2022-09-09T15:08:41;11;11;
49914;PMS5003;35806;47.958;13.158;2022-09-09T15:11:11;18;18;
49914;PMS5003;35806;47.958;13.158;2022-09-09T15:13:41;11;10;
49914;PMS5003;35806;47.958;13.158;2022-09-09T15:16:11;6;6;
49914;PMS5003;35806;47.958;13.158;2022-09-09T15:18:40;8;8;
49914;PMS5003;35806;47.958;13.158;2022-09-09T15:21:07;7;6;
49914;PMS5003;35806;47.958;13.158;2022-09-09T15:23:35;8;7;
49914;PMS5003;35806;47.958;13.158;2022-09-09T15:26:03;5;5;
49914;PMS5003;35806;47.958;13.158;2022-09-09T15:28:31;7;7;
49914;PMS5003;35806;47.958;13.158;2022-09-09T15:30:59;5;5;
49914;PMS5003;35806;47.958;13.158;2022-09-09T15:33:33;7;7;
49914;PMS5003;35806;47.958;13.158;2022-09-09T15:36:13;5;5;
49914;PMS5003;35806;47.958;13.158;2022-09-09T15:38:41;5;5;
49914;PMS5003;35806;47.958;13.158;2022-09-09T15:41:08;3;2;
49914;PMS5003;35806;47.958;13.158;2022-09-09T15:43:36;3;2;
49914;PMS5003;35806;47.958;13.158;2022-09-09T15:46:08;2;2;
49914;PMS5003;35806;47.958;13.158;2022-09-09T15:48:49;2;2;
49914;PMS5003;35806;47.958;13.158;2022-09-09T15:51:24;3;2;
49914;PMS5003;35806;47.958;13.158;2022-09-09T15:54:03;3;3;
49914;PMS5003;35806;47.958;13.158;2022-09-09T15:56:32;5;2;
49914;PMS5003;35806;47.958;13.158;2022-09-09T15:59:01;2;2;
49914;PMS5003;35806;47.958;13.158;2022-09-09T16:01:30;1;1;
49914;PMS5003;35806;47.958;13.158;2022-09-09T16:03:58;3;3;
49914;PMS5003;35806;47.958;13.158;2022-09-09T16:06:26;2;2;
49914;PMS5003;35806;47.958;13.158;2022-09-09T16:08:55;2;2;
49914;PMS5003;35806;47.958;13.158;2022-09-09T16:11:25;2;2;
49914;PMS5003;35806;47.958;13.158;2022-09-09T16:13:54;3;3;
49914;PMS5003;35806;47.958;13.158;2022-09-09T16:16:23;2;2;
49914;PMS5003;35806;47.958;13.158;2022-09-09T16:18:52;7;7;
49914;PMS5003;35806;47.958;13.158;2022-09-09T16:21:22;8;7;
49914;PMS5003;35806;47.958;13.158;2022-09-09T16:23:51;8;7;
49914;PMS5003;35806;47.958;13.158;2022-09-09T16:26:19;3;3;
49914;PMS5003;35806;47.958;13.158;2022-09-09T16:28:46;5;5;
49914;PMS5003;35806;47.958;13.158;2022-09-09T16:31:15;9;9;
49914;PMS5003;35806;47.958;13.158;2022-09-09T16:33:43;6;4;
49914;PMS5003;35806;47.958;13.158;2022-09-09T16:36:11;2;2;
49914;PMS5003;35806;47.958;13.158;2022-09-09T16:38:40;3;3;
49914;PMS5003;35806;47.958;13.158;2022-09-09T16:41:09;3;3;
49914;PMS5003;35806;47.958;13.158;2022-09-09T16:43:36;3;3;
49914;PMS5003;35806;47.958;13.158;2022-09-09T16:46:10;3;2;
49914;PMS5003;35806;47.958;13.158;2022-09-09T16:48:39;3;2;
49914;PMS5003;35806;47.958;13.158;2022-09-09T16:51:08;3;3;
49914;PMS5003;35806;47.958;13.158;2022-09-09T16:53:39;2;2;
49914;PMS5003;35806;47.958;13.158;2022-09-09T16:56:07;4;4;
49914;PMS5003;35806;47.958;13.158;2022-09-09T16:58:36;2;2;
49914;PMS5003;35806;47.958;13.158;2022-09-09T17:01:03;3;3;
49914;PMS5003;35806;47.958;13.158;2022-09-09T17:03:31;3;3;
49914;PMS5003;35806;47.958;13.158;2022-09-09T17:05:59;2;2;
49914;PMS5003;35806;47.958;13.158;2022-09-09T17:08:26;3;3;
49914;PMS5003;35806;47.958;13.158;2022-09-09T17:10:54;2;2;
49914;PMS5003;35806;47.958;13.158;2022-09-09T17:13:21;2;2;
49914;PMS5003;35806;47.958;13.158;2022-09-09T17:15:49;3;2;